KTBR/TBR METAR and TAF weather

Enter ICAO airport designator
Station Type Date Time Source
KTBR METAR 2019/10/20 18:55 UTC NOAA

KTBR 201855Z AUTO 27006KT 10SM OVC018 21/16 A2989 RMK AO2 T02070155


Station Type Date Time Source
KTBR Decoded METAR 2019/10/20 18:55 UTC NOAA

Statesboro, Statesboro-Bulloch County Airport, GA, United States (KTBR) 32-28-59N 081-44-14W
Oct 20, 2019 - 02:55 PM EDT / 2019.10.20 1855 UTC
Wind: from the W (270 degrees) at 7 MPH (6 KT):0
Visibility: 10 mile(s):0
Sky conditions: overcast
Temperature: 69.3 F (20.7 C)
Dew Point: 59.9 F (15.5 C)
Relative Humidity: 72%
Pressure (altimeter): 29.89 in. Hg (1012 hPa)
ob: KTBR 201855Z AUTO 27006KT 10SM OVC018 21/16 A2989 RMK AO2 T02070155
cycle: 19

Station Type Date Time Source
KTBR TAF UTC NOAA

Error!

Example: see airport list